ADDS METAR Data INFO
IDs: Format: Raw Decoded Include TAF

Data at: 0308 UTC 16 Aug 2018

PADK 160307Z AUTO 09003KT 10SM SCT017 OVC038 10/07 A3015 RMK AO2
PADK 160256Z AUTO 08003KT 10SM BKN017 OVC038 10/08 A3015 RMK AO2 SLP211 T01000078 56015
PADK 160156Z AUTO 10005KT 10SM OVC017 09/07 A3017 RMK AO2 SLP217 T00940072
PADK 160108Z AUTO 09005KT 10SM BKN017 OVC045 10/07 A3019 RMK AO2
PADK 160056Z AUTO 08005KT 10SM FEW019 BKN032 OVC045 10/07 A3018 RMK AO2 SLP219 T01000072
PADK 152356Z AUTO 09005KT 10SM FEW017 10/07 A3020 RMK AO2 SLP226 T01000072 10111 20089 58012
PADK 152316Z AUTO 09004KT 10SM SCT023 BKN030 10/08 A3021 RMK AO2
PADK 152256Z AUTO 10005KT 10SM SCT013 OVC021 10/08 A3022 RMK AO2 SLP233 T01000078
PADK 152249Z AUTO 10004KT 10SM BKN015 OVC021 09/07 A3022 RMK AO2
PADK 152230Z AUTO 00000KT 10SM OVC013 09/08 A3023 RMK AO2
PADK 152156Z AUTO 11004KT 10SM OVC016 09/08 A3024 RMK AO2 SLP240 T00940078
PADK 152148Z AUTO 11004KT 10SM FEW011 BKN018 OVC022 09/07 A3024 RMK AO2
PADK 152056Z AUTO 10004KT 10SM BKN012 OVC020 09/08 A3023 RMK AO2 SLP238 T00890078 55004
PADK 151956Z AUTO 09004KT 10SM BKN016 11/08 A3024 RMK AO2 SLP240 T01060078
PADK 151856Z AUTO 21004KT 10SM FEW042 11/08 A3025 RMK AO2 SLP242 T01060078
PADK 151756Z AUTO 21004KT 10SM SCT013 09/08 A3026 RMK AO2 SLP246 T00890078 10094 20078 55005
PADK 151711Z AUTO 23003KT 10SM BKN013 08/07 A3025 RMK AO2
PADK 151656Z AUTO 25003KT 10SM FEW013 BKN036 08/07 A3025 RMK AO2 SLP245 T00830072
PADK 151640Z AUTO 20003KT 10SM SCT015 OVC036 08/07 A3026 RMK AO2
PADK 151628Z AUTO 23003KT 10SM BKN015 OVC036 08/07 A3026 RMK AO2
PADK 151556Z AUTO 26003KT 10SM OVC034 08/07 A3026 RMK AO2 SLP247 T00780067
PADK 151541Z AUTO 00000KT 10SM SCT015 OVC034 09/07 A3026 RMK AO2
PADK 151519Z AUTO 00000KT 10SM OVC015 09/07 A3027 RMK AO2
PADK 151456Z AUTO 00000KT 10SM OVC013 09/07 A3027 RMK AO2 SLP251 T00890072 58010
PADK 151418Z AUTO 00000KT 10SM OVC011 09/07 A3028 RMK AO2
PADK 151356Z AUTO 00000KT 10SM OVC009 09/08 A3029 RMK AO2 CIG 006V011 SLP255 T00890078
PADK 151332Z AUTO 33005KT 10SM OVC007 08/08 A3029 RMK AO2 CIG 004V009
PADK 151256Z AUTO 35008KT 10SM OVC005 09/09 A3029 RMK AO2 CIG 003V007 SLP257 T00940089
PADK 151221Z AUTO 20003KT 7SM OVC005 09/09 A3030 RMK AO2 CIG 002V008
PADK 151212Z AUTO 22003KT 2SM BR SCT002 OVC008 09/09 A3030 RMK AO2
PADK 151158Z AUTO 26004KT 3SM BR SCT002 OVC008 09/09 A3030 RMK AO2
PADK 151156Z AUTO 26005KT 2SM BR BKN002 OVC008 09/09 A3030 RMK AO2 SLP261 T00890089 10100 20089 56004
PADK 151153Z AUTO 25005KT 1 1/4SM BR BKN002 OVC008 09/08 A3030 RMK AO2
PADK 151145Z AUTO 24007KT 2SM BR BKN002 BKN008 OVC024 09/09 A3030 RMK AO2
PADK 151141Z AUTO 22007KT 1 1/4SM BR SCT002 BKN008 OVC024 09/08 A3030 RMK AO2
PADK 151122Z AUTO 24007KT 1 1/4SM BR BKN002 BKN008 OVC022 09/08 A3030 RMK AO2 VIS 3/4V2 1/2
PADK 151104Z AUTO 25004KT 2SM BR BKN002 OVC021 09/08 A3030 RMK AO2
PADK 151056Z AUTO 25004KT 3SM BR BKN002 OVC021 09/08 A3030 RMK AO2 SLP261 T00890083
PADK 150956Z AUTO 23009KT 10SM OVC019 09/08 A3031 RMK AO2 SLP265 T00890083 401500083
PADK 150856Z AUTO 25007KT 10SM OVC021 10/08 A3031 RMK AO2 SLP264 T01000083 53005
PADK 150756Z AUTO 26009KT 10SM OVC018 09/08 A3031 RMK AO2 SLP263 T00940083
PADK 150732Z AUTO 28008KT 10SM SCT018 BKN026 09/08 A3031 RMK AO2
PADK 150723Z AUTO 28009KT 10SM FEW020 SCT026 09/08 A3030 RMK AO2
PADK 150656Z AUTO 28011KT 10SM BKN020 OVC026 10/08 A3030 RMK AO2 SLP259 T01000078
PADK 150556Z AUTO 26010KT 10SM BKN027 OVC034 11/08 A3030 RMK AO2 SLP259 T01060078 10150 20106 56009
PADK 150456Z AUTO 30006KT 10SM BKN041 OVC049 12/07 A3030 RMK AO2 SLP259 T01220072
PADK 150356Z AUTO 25007G15KT 10SM OVC039 14/07 A3031 RMK AO2 SLP264 T01390067
PADK 150256Z AUTO 25015G21KT 10SM FEW039 SCT050 14/08 A3032 RMK AO2 SLP268 T01390078 56014
PADK 150156Z AUTO 25015KT 10SM OVC041 14/08 A3033 RMK AO2 SLP270 T01390083
PADK 150056Z AUTO 25015KT 10SM OVC036 12/08 A3035 RMK AO2 SLP277 T01170078
PADK 142356Z AUTO 25012KT 10SM OVC033 11/08 A3036 RMK AO2 SLP281 T01060078 10111 20089 58004
PADK 142256Z AUTO 25013KT 10SM OVC033 11/07 A3037 RMK AO2 SLP284 T01110072
PADK 142156Z AUTO 24015KT 10SM OVC035 11/08 A3037 RMK AO2 SLP285 T01060078
PADK 142056Z AUTO 24015KT 10SM OVC035 11/08 A3037 RMK AO2 SLP285 T01060078 58006
PADK 141956Z AUTO 25014KT 10SM SCT008 OVC033 10/08 A3038 RMK AO2 SLP287 T01000078
PADK 141929Z AUTO 25013KT 10SM SCT008 OVC031 09/08 A3039 RMK AO2
PADK 141916Z AUTO 25010KT 10SM SCT010 OVC031 09/08 A3039 RMK AO2
PADK 141856Z AUTO 25011KT 10SM OVC010 09/08 A3039 RMK AO2 SLP290 T00940078
PADK 141835Z AUTO 25006KT 10SM BKN010 OVC017 09/07 A3038 RMK AO2
PADK 141756Z AUTO 25011KT 10SM OVC026 09/07 A3039 RMK AO2 SLP291 T00890072 10089 20083 56007
PADK 141734Z AUTO 25007KT 10SM FEW012 SCT016 OVC026 09/07 A3039 RMK AO2
PADK 141656Z AUTO 27007KT 10SM OVC014 09/07 A3039 RMK AO2 SLP292 T00890067
PADK 141618Z AUTO 27009KT 10SM SCT014 OVC027 09/07 A3040 RMK AO2
PADK 141556Z AUTO 27010KT 10SM OVC014 09/07 A3040 RMK AO2 SLP293 T00890072